Time;durP1;ratioP1;P1;durP2;ratioP2;P2;SDS_P1;SDS_P2;PMS_P1;PMS_P2;Temp;Humidity;BMP_temperature;BMP_pressure;BME280_temperature;BME280_humidity;BME280_pressure;Samples;Min_cycle;Max_cycle;Signal;HPM_P1;HPM_P2
2019/10/01 00:00:41;;;;;;;4.05;2.6;;;;;;;9.28;97.01074;94984.25;;;;
2019/10/01 00:01:45;;;;;;;4.05;2.6;;;;;;;9.28;97.01074;94984.25;;;;
2019/10/01 00:02:46;;;;;;;4.5;2.7;;;;;;;9.31;97.48145;94986.6;;;;
2019/10/01 00:03:47;;;;;;;4.5;2.7;;;;;;;9.31;97.48145;94986.6;;;;
2019/10/01 00:04:48;;;;;;;4.5;2.7;;;;;;;9.31;97.48145;94986.6;;;;
2019/10/01 00:05:49;;;;;;;5.999999;3.05;;;;;;;9.32;97.89063;94964.81;;;;
2019/10/01 00:06:51;;;;;;;5.999999;3.05;;;;;;;9.32;97.89063;94964.81;;;;
2019/10/01 00:07:52;;;;;;;3.85;2.8;;;;;;;9.34;98.06445;94980.22;;;;
2019/10/01 00:08:53;;;;;;;3.85;2.8;;;;;;;9.34;98.06445;94980.22;;;;
2019/10/01 00:09:54;;;;;;;3.85;2.8;;;;;;;9.34;98.06445;94980.22;;;;
2019/10/01 00:10:55;;;;;;;3.45;2.8;;;;;;;9.35;98.39258;94982.81;;;;
2019/10/01 00:11:57;;;;;;;3.45;2.8;;;;;;;9.35;98.39258;94982.81;;;;
2019/10/01 00:12:58;;;;;;;3.45;2.8;;;;;;;9.35;98.39258;94982.81;;;;
2019/10/01 00:13:59;;;;;;;3.45;2.8;;;;;;;9.35;98.39258;94982.81;;;;
2019/10/01 00:15:00;;;;;;;3.45;2.8;;;;;;;9.35;98.39258;94982.81;;;;
2019/10/01 00:16:17;;;;;;;3.45;2.8;;;;;;;9.35;98.39258;94982.81;;;;
2019/10/01 00:17:18;;;;;;;3.45;2.8;;;;;;;9.35;98.39258;94982.81;;;;
2019/10/01 00:18:20;;;;;;;3.45;2.8;;;;;;;9.35;98.39258;94982.81;;;;
2019/10/01 00:19:21;;;;;;;3.45;2.8;;;;;;;9.35;98.39258;94982.81;;;;
2019/10/01 00:20:22;;;;;;;3.45;2.8;;;;;;;9.35;98.39258;94982.81;;;;
2019/10/01 00:21:25;;;;;;;5.5;2.7;;;;;;;8.97;97.00586;94973.86;;;;
2019/10/01 00:22:26;;;;;;;5.5;2.7;;;;;;;8.97;97.00586;94973.86;;;;
2019/10/01 00:23:28;;;;;;;4.15;2.7;;;;;;;8.94;97.91992;94977.4;;;;
2019/10/01 00:24:29;;;;;;;4.15;2.7;;;;;;;8.94;97.91992;94977.4;;;;
2019/10/01 00:25:30;;;;;;;4.15;2.7;;;;;;;8.94;97.91992;94977.4;;;;
2019/10/01 00:26:31;;;;;;;5.4;2.900001;;;;;;;8.97;98.34961;94978.83;;;;
2019/10/01 00:27:33;;;;;;;5.4;2.900001;;;;;;;8.97;98.34961;94978.83;;;;
2019/10/01 00:28:34;;;;;;;5.4;2.900001;;;;;;;8.97;98.34961;94978.83;;;;
2019/10/01 00:29:35;;;;;;;5.15;2.6;;;;;;;9;98.7373;94979.28;;;;
2019/10/01 00:30:36;;;;;;;5.15;2.6;;;;;;;9;98.7373;94979.28;;;;
2019/10/01 00:31:46;;;;;;;5.15;2.6;;;;;;;9;98.7373;94979.28;;;;
2019/10/01 00:32:48;;;;;;;5.15;2.6;;;;;;;9;98.7373;94979.28;;;;
2019/10/01 00:33:49;;;;;;;5.15;2.6;;;;;;;9;98.7373;94979.28;;;;
2019/10/01 00:34:50;;;;;;;5.15;2.6;;;;;;;9;98.7373;94979.28;;;;
2019/10/01 00:35:51;;;;;;;5.15;2.6;;;;;;;9;98.7373;94979.28;;;;
2019/10/01 00:36:53;;;;;;;5.15;2.6;;;;;;;9;98.7373;94979.28;;;;
2019/10/01 00:37:54;;;;;;;5.15;2.6;;;;;;;9;98.7373;94979.28;;;;
2019/10/01 00:38:55;;;;;;;5.15;2.6;;;;;;;9;98.7373;94979.28;;;;
2019/10/01 00:39:57;;;;;;;5.15;2.95;;;;;;;8.68;97.44043;94965.75;;;;
2019/10/01 00:40:58;;;;;;;5.15;2.95;;;;;;;8.68;97.44043;94965.75;;;;
2019/10/01 00:42:02;;;;;;;4.900001;2.9;;;;;;;8.68;98.38965;94964.92;;;;
2019/10/01 00:43:03;;;;;;;4.900001;2.9;;;;;;;8.68;98.38965;94964.92;;;;
2019/10/01 00:44:04;;;;;;;4.900001;2.9;;;;;;;8.68;98.38965;94964.92;;;;
2019/10/01 00:45:07;;;;;;;4.900001;2.9;;;;;;;8.68;98.38965;94964.92;;;;
2019/10/01 00:46:11;;;;;;;4.900001;2.9;;;;;;;8.68;98.38965;94964.92;;;;
2019/10/01 00:47:12;;;;;;;4.900001;2.9;;;;;;;8.68;98.38965;94964.92;;;;
2019/10/01 00:48:15;;;;;;;4.900001;2.9;;;;;;;8.68;98.38965;94964.92;;;;
2019/10/01 00:49:19;;;;;;;4.900001;2.9;;;;;;;8.68;98.38965;94964.92;;;;
2019/10/01 00:50:20;;;;;;;4.900001;2.9;;;;;;;8.68;98.38965;94964.92;;;;
2019/10/01 00:51:22;;;;;;;4.900001;2.9;;;;;;;8.68;98.38965;94964.92;;;;
2019/10/01 00:52:26;;;;;;;4.900001;2.9;;;;;;;8.68;98.38965;94964.92;;;;
2019/10/01 00:53:29;;;;;;;4.3;2.9;;;;;;;8.48;97.40625;94951.78;;;;
2019/10/01 00:54:30;;;;;;;4.3;2.9;;;;;;;8.48;97.40625;94951.78;;;;
2019/10/01 00:55:32;;;;;;;4.6;2.9;;;;;;;8.5;98.45508;94942.13;;;;
2019/10/01 00:56:33;;;;;;;4.6;2.9;;;;;;;8.5;98.45508;94942.13;;;;
2019/10/01 00:57:36;;;;;;;4.6;2.9;;;;;;;8.5;98.45508;94942.13;;;;
2019/10/01 00:58:37;;;;;;;5.55;3.2;;;;;;;8.56;99.03906;94940.8;;;;
2019/10/01 00:59:38;;;;;;;5.55;3.2;;;;;;;8.56;99.03906;94940.8;;;;
2019/10/01 01:00:39;;;;;;;4.85;3.8;;;;;;;8.62;99.54004;94940.69;;;;
2019/10/01 01:01:41;;;;;;;4.85;3.8;;;;;;;8.62;99.54004;94940.69;;;;
2019/10/01 01:02:42;;;;;;;4.85;3.8;;;;;;;8.62;99.54004;94940.69;;;;
2019/10/01 01:03:44;;;;;;;3.35;2.9;;;;;;;8.67;99.7832;94942.14;;;;
2019/10/01 01:04:45;;;;;;;3.35;2.9;;;;;;;8.67;99.7832;94942.14;;;;
2019/10/01 01:05:47;;;;;;;4.9;2.95;;;;;;;8.7;100;94938.59;;;;
2019/10/01 01:06:48;;;;;;;4.9;2.95;;;;;;;8.7;100;94938.59;;;;
2019/10/01 01:07:51;;;;;;;4.9;2.95;;;;;;;8.7;100;94938.59;;;;
2019/10/01 01:08:52;;;;;;;4.9;2.95;;;;;;;8.7;100;94938.59;;;;
2019/10/01 01:09:54;;;;;;;4.9;2.95;;;;;;;8.7;100;94938.59;;;;
2019/10/01 01:10:55;;;;;;;4.9;2.95;;;;;;;8.7;100;94938.59;;;;
2019/10/01 01:11:56;;;;;;;4.9;2.95;;;;;;;8.7;100;94938.59;;;;
2019/10/01 01:12:58;;;;;;;4.9;2.95;;;;;;;8.7;100;94938.59;;;;
2019/10/01 01:13:59;;;;;;;4.9;2.95;;;;;;;8.7;100;94938.59;;;;
2019/10/01 01:15:00;;;;;;;4.9;2.95;;;;;;;8.7;100;94938.59;;;;
2019/10/01 01:16:04;;;;;;;4.9;2.95;;;;;;;8.7;100;94938.59;;;;
2019/10/01 01:17:06;;;;;;;4.500001;2.65;;;;;;;8.43;98.71484;94931.48;;;;
2019/10/01 01:18:07;;;;;;;4.500001;2.65;;;;;;;8.43;98.71484;94931.48;;;;
2019/10/01 01:19:09;;;;;;;4.099999;3;;;;;;;8.43;99.63477;94929.32;;;;
2019/10/01 01:20:11;;;;;;;4.099999;3;;;;;;;8.43;99.63477;94929.32;;;;
2019/10/01 01:21:13;;;;;;;4.099999;3;;;;;;;8.43;99.63477;94929.32;;;;
2019/10/01 01:22:15;;;;;;;4.099999;3;;;;;;;8.43;99.63477;94929.32;;;;
2019/10/01 01:23:17;;;;;;;4.099999;3;;;;;;;8.43;99.63477;94929.32;;;;
2019/10/01 01:24:18;;;;;;;4.099999;3;;;;;;;8.43;99.63477;94929.32;;;;
2019/10/01 01:25:20;;;;;;;4.099999;3;;;;;;;8.43;99.63477;94929.32;;;;
2019/10/01 01:26:22;;;;;;;4.099999;3;;;;;;;8.43;99.63477;94929.32;;;;
2019/10/01 01:27:25;;;;;;;4.099999;3;;;;;;;8.43;99.63477;94929.32;;;;
2019/10/01 01:28:26;;;;;;;4.099999;3;;;;;;;8.43;99.63477;94929.32;;;;
2019/10/01 01:29:29;;;;;;;4.099999;3;;;;;;;8.43;99.63477;94929.32;;;;
2019/10/01 01:30:30;;;;;;;4.35;3;;;;;;;8.25;98.62207;94912.32;;;;
2019/10/01 01:31:36;;;;;;;4.35;3;;;;;;;8.25;98.62207;94912.32;;;;
2019/10/01 01:32:38;;;;;;;3.15;2.85;;;;;;;8.27;99.61719;94915.19;;;;
2019/10/01 01:33:40;;;;;;;3.15;2.85;;;;;;;8.27;99.61719;94915.19;;;;
2019/10/01 01:34:43;;;;;;;3.15;2.85;;;;;;;8.27;99.61719;94915.19;;;;
2019/10/01 01:35:47;;;;;;;3.15;2.85;;;;;;;8.27;99.61719;94915.19;;;;
2019/10/01 01:36:48;;;;;;;3.15;2.85;;;;;;;8.27;99.61719;94915.19;;;;
2019/10/01 01:37:50;;;;;;;3.15;2.85;;;;;;;8.27;99.61719;94915.19;;;;
2019/10/01 01:38:51;;;;;;;3.15;2.85;;;;;;;8.27;99.61719;94915.19;;;;
2019/10/01 01:39:52;;;;;;;3.15;2.85;;;;;;;8.27;99.61719;94915.19;;;;
2019/10/01 01:40:54;;;;;;;3.15;2.85;;;;;;;8.27;99.61719;94915.19;;;;
2019/10/01 01:41:56;;;;;;;3.15;2.85;;;;;;;8.27;99.61719;94915.19;;;;
2019/10/01 01:42:58;;;;;;;3.45;2.7;;;;;;;8.14;98.66992;94909.45;;;;
2019/10/01 01:44:00;;;;;;;3.45;2.7;;;;;;;8.14;98.66992;94909.45;;;;
2019/10/01 01:45:01;;;;;;;3.45;2.7;;;;;;;8.14;98.66992;94909.45;;;;
2019/10/01 01:46:04;;;;;;;3.5;2.95;;;;;;;8.17;99.80664;94903.61;;;;
2019/10/01 01:47:05;;;;;;;3.5;2.95;;;;;;;8.17;99.80664;94903.61;;;;
2019/10/01 01:48:07;;;;;;;3.5;2.95;;;;;;;8.17;99.80664;94903.61;;;;
2019/10/01 01:49:08;;;;;;;3.5;2.95;;;;;;;8.17;99.80664;94903.61;;;;
2019/10/01 01:50:10;;;;;;;3.5;2.95;;;;;;;8.17;99.80664;94903.61;;;;
2019/10/01 01:51:12;;;;;;;3.5;2.95;;;;;;;8.17;99.80664;94903.61;;;;
2019/10/01 01:52:13;;;;;;;3.5;2.95;;;;;;;8.17;99.80664;94903.61;;;;
2019/10/01 01:53:14;;;;;;;3.5;2.95;;;;;;;8.17;99.80664;94903.61;;;;
2019/10/01 01:54:15;;;;;;;3.5;2.95;;;;;;;8.17;99.80664;94903.61;;;;
2019/10/01 01:55:17;;;;;;;3.5;2.95;;;;;;;8.17;99.80664;94903.61;;;;
2019/10/01 01:56:20;;;;;;;4.4;2.95;;;;;;;8.17;99.03613;94894.74;;;;
2019/10/01 01:57:23;;;;;;;4.4;2.95;;;;;;;8.17;99.03613;94894.74;;;;
2019/10/01 01:58:24;;;;;;;4.4;2.95;;;;;;;8.17;99.03613;94894.74;;;;
2019/10/01 01:59:26;;;;;;;5.5;2.85;;;;;;;8.23;100;94887.49;;;;
2019/10/01 02:00:27;;;;;;;5.5;2.85;;;;;;;8.23;100;94887.49;;;;
2019/10/01 02:01:30;;;;;;;5.5;2.85;;;;;;;8.23;100;94887.49;;;;
2019/10/01 02:02:32;;;;;;;5.5;2.85;;;;;;;8.23;100;94887.49;;;;
2019/10/01 02:03:33;;;;;;;5.5;2.85;;;;;;;8.23;100;94887.49;;;;
2019/10/01 02:04:35;;;;;;;5.5;2.85;;;;;;;8.23;100;94887.49;;;;
2019/10/01 02:05:36;;;;;;;5.5;2.85;;;;;;;8.23;100;94887.49;;;;
2019/10/01 02:06:37;;;;;;;5.5;2.85;;;;;;;8.23;100;94887.49;;;;
2019/10/01 02:07:40;;;;;;;5.5;2.85;;;;;;;8.23;100;94887.49;;;;
2019/10/01 02:08:41;;;;;;;5.5;2.85;;;;;;;8.23;100;94887.49;;;;
2019/10/01 02:09:42;;;;;;;5.05;2.95;;;;;;;8.2;99.16113;94873.58;;;;
2019/10/01 02:10:43;;;;;;;5.05;2.95;;;;;;;8.2;99.16113;94873.58;;;;
2019/10/01 02:11:45;;;;;;;5.05;2.95;;;;;;;8.2;99.16113;94873.58;;;;
2019/10/01 02:12:46;;;;;;;3.2;2.55;;;;;;;8.26;100;94867.81;;;;
2019/10/01 02:13:48;;;;;;;3.2;2.55;;;;;;;8.26;100;94867.81;;;;
2019/10/01 02:14:49;;;;;;;3.2;2.55;;;;;;;8.26;100;94867.81;;;;
2019/10/01 02:15:50;;;;;;;3.2;2.55;;;;;;;8.26;100;94867.81;;;;
2019/10/01 02:16:52;;;;;;;3.2;2.55;;;;;;;8.26;100;94867.81;;;;
2019/10/01 02:17:53;;;;;;;3.2;2.55;;;;;;;8.26;100;94867.81;;;;
2019/10/01 02:18:54;;;;;;;3.2;2.55;;;;;;;8.26;100;94867.81;;;;
2019/10/01 02:19:56;;;;;;;3.2;2.55;;;;;;;8.26;100;94867.81;;;;
2019/10/01 02:20:57;;;;;;;3.2;2.55;;;;;;;8.26;100;94867.81;;;;
2019/10/01 02:21:58;;;;;;;3.2;2.55;;;;;;;8.26;100;94867.81;;;;
2019/10/01 02:22:59;;;;;;;3.4;2.45;;;;;;;8.32;99.51563;94862.76;;;;
2019/10/01 02:24:00;;;;;;;3.4;2.45;;;;;;;8.32;99.51563;94862.76;;;;
2019/10/01 02:25:02;;;;;;;3.4;2.45;;;;;;;8.32;99.51563;94862.76;;;;
2019/10/01 02:26:05;;;;;;;4;2.45;;;;;;;8.39;100;94855.39;;;;
2019/10/01 02:27:06;;;;;;;4;2.45;;;;;;;8.39;100;94855.39;;;;
2019/10/01 02:28:07;;;;;;;4;2.45;;;;;;;8.39;100;94855.39;;;;
2019/10/01 02:29:09;;;;;;;4;2.45;;;;;;;8.39;100;94855.39;;;;
2019/10/01 02:30:10;;;;;;;4;2.45;;;;;;;8.39;100;94855.39;;;;
2019/10/01 02:31:12;;;;;;;4;2.45;;;;;;;8.39;100;94855.39;;;;
2019/10/01 02:32:13;;;;;;;4;2.45;;;;;;;8.39;100;94855.39;;;;
2019/10/01 02:33:15;;;;;;;4;2.45;;;;;;;8.39;100;94855.39;;;;
2019/10/01 02:34:16;;;;;;;4;2.45;;;;;;;8.39;100;94855.39;;;;
2019/10/01 02:35:19;;;;;;;4;2.45;;;;;;;8.39;100;94855.39;;;;
2019/10/01 02:36:20;;;;;;;3.65;2.55;;;;;;;8.44;99.61621;94826.01;;;;
2019/10/01 02:37:21;;;;;;;3.65;2.55;;;;;;;8.44;99.61621;94826.01;;;;
2019/10/01 02:38:23;;;;;;;4.9;2.6;;;;;;;8.48;100;94826.26;;;;
2019/10/01 02:39:24;;;;;;;4.9;2.6;;;;;;;8.48;100;94826.26;;;;
2019/10/01 02:40:26;;;;;;;4.9;2.6;;;;;;;8.48;100;94826.26;;;;
2019/10/01 02:41:28;;;;;;;4.9;2.6;;;;;;;8.48;100;94826.26;;;;
2019/10/01 02:42:29;;;;;;;4.9;2.6;;;;;;;8.48;100;94826.26;;;;
2019/10/01 02:43:30;;;;;;;4.9;2.6;;;;;;;8.48;100;94826.26;;;;
2019/10/01 02:44:32;;;;;;;4.9;2.6;;;;;;;8.48;100;94826.26;;;;
2019/10/01 02:45:33;;;;;;;4.9;2.6;;;;;;;8.48;100;94826.26;;;;
2019/10/01 02:46:35;;;;;;;4.9;2.6;;;;;;;8.48;100;94826.26;;;;
2019/10/01 02:47:36;;;;;;;4.9;2.6;;;;;;;8.48;100;94826.26;;;;
2019/10/01 02:48:38;;;;;;;4.9;2.6;;;;;;;8.48;100;94826.26;;;;
2019/10/01 02:49:39;;;;;;;3.8;2.2;;;;;;;8.39;99.71094;94813.7;;;;
2019/10/01 02:50:41;;;;;;;3.8;2.2;;;;;;;8.39;99.71094;94813.7;;;;
2019/10/01 02:51:43;;;;;;;3.7;2.5;;;;;;;8.43;100;94816.74;;;;
2019/10/01 02:52:45;;;;;;;3.7;2.5;;;;;;;8.43;100;94816.74;;;;
2019/10/01 02:53:46;;;;;;;3.7;2.5;;;;;;;8.43;100;94816.74;;;;
2019/10/01 02:54:47;;;;;;;3.7;2.5;;;;;;;8.43;100;94816.74;;;;
2019/10/01 02:55:49;;;;;;;3.7;2.5;;;;;;;8.43;100;94816.74;;;;
2019/10/01 02:56:50;;;;;;;3.7;2.5;;;;;;;8.43;100;94816.74;;;;
2019/10/01 02:57:51;;;;;;;3.7;2.5;;;;;;;8.43;100;94816.74;;;;
2019/10/01 02:58:53;;;;;;;3.7;2.5;;;;;;;8.43;100;94816.74;;;;
2019/10/01 02:59:55;;;;;;;3.7;2.5;;;;;;;8.43;100;94816.74;;;;
2019/10/01 03:00:56;;;;;;;3.7;2.5;;;;;;;8.43;100;94816.74;;;;
2019/10/01 03:02:00;;;;;;;3.7;2.5;;;;;;;8.43;100;94816.74;;;;
2019/10/01 03:03:03;;;;;;;3.65;2.5;;;;;;;8.38;100;94813.94;;;;
2019/10/01 03:04:05;;;;;;;3.65;2.5;;;;;;;8.38;100;94813.94;;;;
2019/10/01 03:05:08;;;;;;;3.65;2.5;;;;;;;8.38;100;94813.94;;;;
2019/10/01 03:06:11;;;;;;;3.65;2.5;;;;;;;8.38;100;94813.94;;;;
2019/10/01 03:07:13;;;;;;;3.65;2.5;;;;;;;8.38;100;94813.94;;;;
2019/10/01 03:08:15;;;;;;;3.65;2.5;;;;;;;8.38;100;94813.94;;;;
2019/10/01 03:09:17;;;;;;;3.65;2.5;;;;;;;8.38;100;94813.94;;;;
2019/10/01 03:10:18;;;;;;;3.65;2.5;;;;;;;8.38;100;94813.94;;;;
2019/10/01 03:11:21;;;;;;;3.65;2.5;;;;;;;8.38;100;94813.94;;;;
2019/10/01 03:12:24;;;;;;;3.65;2.5;;;;;;;8.38;100;94813.94;;;;
2019/10/01 03:13:26;;;;;;;3.95;2.6;;;;;;;8.48;99.79297;94807.01;;;;
2019/10/01 03:14:27;;;;;;;3.95;2.6;;;;;;;8.48;99.79297;94807.01;;;;
2019/10/01 03:15:28;;;;;;;3.95;2.6;;;;;;;8.48;99.79297;94807.01;;;;
2019/10/01 03:16:33;;;;;;;3.95;2.6;;;;;;;8.48;99.79297;94807.01;;;;
2019/10/01 03:17:34;;;;;;;3.95;2.6;;;;;;;8.48;99.79297;94807.01;;;;
2019/10/01 03:18:36;;;;;;;3.95;2.6;;;;;;;8.48;99.79297;94807.01;;;;
2019/10/01 03:19:38;;;;;;;3.95;2.6;;;;;;;8.48;99.79297;94807.01;;;;
2019/10/01 03:20:39;;;;;;;3.95;2.6;;;;;;;8.48;99.79297;94807.01;;;;
2019/10/01 03:21:41;;;;;;;3.95;2.6;;;;;;;8.48;99.79297;94807.01;;;;
2019/10/01 03:22:48;;;;;;;3.95;2.6;;;;;;;8.48;99.79297;94807.01;;;;
2019/10/01 03:23:54;;;;;;;3.65;2.35;;;;;;;8.55;99.63965;94789.81;;;;
2019/10/01 03:24:55;;;;;;;3.65;2.35;;;;;;;8.55;99.63965;94789.81;;;;
2019/10/01 03:25:59;;;;;;;3.65;2.35;;;;;;;8.55;99.63965;94789.81;;;;
2019/10/01 03:27:00;;;;;;;4;2.35;;;;;;;8.63;100;94792.99;;;;
2019/10/01 03:28:01;;;;;;;4;2.35;;;;;;;8.63;100;94792.99;;;;
2019/10/01 03:29:03;;;;;;;4;2.35;;;;;;;8.63;100;94792.99;;;;
2019/10/01 03:30:05;;;;;;;4;2.35;;;;;;;8.63;100;94792.99;;;;
2019/10/01 03:31:13;;;;;;;4;2.35;;;;;;;8.63;100;94792.99;;;;
2019/10/01 03:32:15;;;;;;;4;2.35;;;;;;;8.63;100;94792.99;;;;
2019/10/01 03:33:16;;;;;;;4;2.35;;;;;;;8.63;100;94792.99;;;;
2019/10/01 03:34:18;;;;;;;4;2.35;;;;;;;8.63;100;94792.99;;;;
2019/10/01 03:35:19;;;;;;;4;2.35;;;;;;;8.63;100;94792.99;;;;
2019/10/01 03:36:27;;;;;;;4;2.35;;;;;;;8.63;100;94792.99;;;;
2019/10/01 03:37:32;;;;;;;4.5;2.4;;;;;;;8.76;100;94770.39;;;;
2019/10/01 03:38:33;;;;;;;4.5;2.4;;;;;;;8.76;100;94770.39;;;;
2019/10/01 03:39:35;;;;;;;2.5;2.3;;;;;;;8.84;100;94773.1;;;;
2019/10/01 03:40:36;;;;;;;2.5;2.3;;;;;;;8.84;100;94773.1;;;;
2019/10/01 03:41:37;;;;;;;2.5;2.3;;;;;;;8.84;100;94773.1;;;;
2019/10/01 03:42:38;;;;;;;2.5;2.3;;;;;;;8.84;100;94773.1;;;;
2019/10/01 03:43:39;;;;;;;2.5;2.3;;;;;;;8.84;100;94773.1;;;;
2019/10/01 03:44:41;;;;;;;2.5;2.3;;;;;;;8.84;100;94773.1;;;;
2019/10/01 03:45:42;;;;;;;2.5;2.3;;;;;;;8.84;100;94773.1;;;;
2019/10/01 03:46:43;;;;;;;2.5;2.3;;;;;;;8.84;100;94773.1;;;;
2019/10/01 03:47:45;;;;;;;2.5;2.3;;;;;;;8.84;100;94773.1;;;;
2019/10/01 03:48:46;;;;;;;2.5;2.3;;;;;;;8.84;100;94773.1;;;;
2019/10/01 03:49:52;;;;;;;2.8;2.25;;;;;;;8.92;100;94761.99;;;;
2019/10/01 03:50:54;;;;;;;2.8;2.25;;;;;;;8.92;100;94761.99;;;;
2019/10/01 03:51:55;;;;;;;2.8;2.25;;;;;;;8.92;100;94761.99;;;;
2019/10/01 03:52:56;;;;;;;4.1;2.6;;;;;;;9;100;94765.63;;;;
2019/10/01 03:53:57;;;;;;;4.1;2.6;;;;;;;9;100;94765.63;;;;
2019/10/01 03:54:59;;;;;;;4.1;2.6;;;;;;;9;100;94765.63;;;;
2019/10/01 03:56:00;;;;;;;4.1;2.6;;;;;;;9;100;94765.63;;;;
2019/10/01 03:57:03;;;;;;;4.1;2.6;;;;;;;9;100;94765.63;;;;
2019/10/01 03:58:04;;;;;;;4.1;2.6;;;;;;;9;100;94765.63;;;;
2019/10/01 03:59:05;;;;;;;4.1;2.6;;;;;;;9;100;94765.63;;;;
2019/10/01 04:00:07;;;;;;;4.1;2.6;;;;;;;9;100;94765.63;;;;
2019/10/01 04:01:09;;;;;;;4.1;2.6;;;;;;;9;100;94765.63;;;;
2019/10/01 04:02:11;;;;;;;4.1;2.6;;;;;;;9;100;94765.63;;;;
2019/10/01 04:03:12;;;;;;;2.3;1.9;;;;;;;9.08;100;94746;;;;
2019/10/01 04:04:14;;;;;;;2.3;1.9;;;;;;;9.08;100;94746;;;;
2019/10/01 04:05:15;;;;;;;2.3;1.9;;;;;;;9.08;100;94746;;;;
2019/10/01 04:06:35;;;;;;;4.099999;2.35;;;;;;;9.15;100;94741.29;;;;
2019/10/01 04:07:36;;;;;;;4.099999;2.35;;;;;;;9.15;100;94741.29;;;;
2019/10/01 04:08:37;;;;;;;4.099999;2.35;;;;;;;9.15;100;94741.29;;;;
2019/10/01 04:09:39;;;;;;;4.099999;2.35;;;;;;;9.15;100;94741.29;;;;
2019/10/01 04:10:40;;;;;;;4.099999;2.35;;;;;;;9.15;100;94741.29;;;;
2019/10/01 04:11:43;;;;;;;4.099999;2.35;;;;;;;9.15;100;94741.29;;;;
2019/10/01 04:12:44;;;;;;;4.099999;2.35;;;;;;;9.15;100;94741.29;;;;
2019/10/01 04:13:45;;;;;;;4.099999;2.35;;;;;;;9.15;100;94741.29;;;;
2019/10/01 04:14:47;;;;;;;4.099999;2.35;;;;;;;9.15;100;94741.29;;;;
2019/10/01 04:15:48;;;;;;;4.099999;2.35;;;;;;;9.15;100;94741.29;;;;
2019/10/01 04:16:49;;;;;;;3.1;2.1;;;;;;;9.18;100;94720.59;;;;
2019/10/01 04:17:50;;;;;;;3.1;2.1;;;;;;;9.18;100;94720.59;;;;
2019/10/01 04:18:53;;;;;;;3.1;2.1;;;;;;;9.18;100;94720.59;;;;
2019/10/01 04:19:55;;;;;;;2.6;2;;;;;;;9.24;100;94719.65;;;;
2019/10/01 04:20:56;;;;;;;2.6;2;;;;;;;9.24;100;94719.65;;;;
2019/10/01 04:21:59;;;;;;;2.6;2;;;;;;;9.24;100;94719.65;;;;
2019/10/01 04:23:01;;;;;;;2.6;2;;;;;;;9.24;100;94719.65;;;;
2019/10/01 04:24:02;;;;;;;2.6;2;;;;;;;9.24;100;94719.65;;;;
2019/10/01 04:25:04;;;;;;;2.6;2;;;;;;;9.24;100;94719.65;;;;
2019/10/01 04:26:07;;;;;;;2.6;2;;;;;;;9.24;100;94719.65;;;;
2019/10/01 04:27:09;;;;;;;2.6;2;;;;;;;9.24;100;94719.65;;;;
2019/10/01 04:28:10;;;;;;;2.6;2;;;;;;;9.24;100;94719.65;;;;
2019/10/01 04:29:11;;;;;;;2.6;2;;;;;;;9.24;100;94719.65;;;;
2019/10/01 04:30:12;;;;;;;3.95;2.05;;;;;;;9.19;100;94702.84;;;;
2019/10/01 04:31:15;;;;;;;3.95;2.05;;;;;;;9.19;100;94702.84;;;;
2019/10/01 04:32:17;;;;;;;3.95;2.05;;;;;;;9.19;100;94702.84;;;;
2019/10/01 04:33:18;;;;;;;3.95;2.05;;;;;;;9.19;100;94702.84;;;;
2019/10/01 04:34:20;;;;;;;3.95;2.05;;;;;;;9.19;100;94702.84;;;;
2019/10/01 04:35:22;;;;;;;3.95;2.05;;;;;;;9.19;100;94702.84;;;;
2019/10/01 04:36:29;;;;;;;3.95;2.05;;;;;;;9.19;100;94702.84;;;;
2019/10/01 04:37:32;;;;;;;3.95;2.05;;;;;;;9.19;100;94702.84;;;;
2019/10/01 04:38:34;;;;;;;3.95;2.05;;;;;;;9.19;100;94702.84;;;;
2019/10/01 04:39:37;;;;;;;3.95;2.05;;;;;;;9.19;100;94702.84;;;;
2019/10/01 04:40:39;;;;;;;3.35;2;;;;;;;9.22;100;94702.38;;;;
2019/10/01 04:41:40;;;;;;;3.35;2;;;;;;;9.22;100;94702.38;;;;
2019/10/01 04:42:41;;;;;;;3.35;2;;;;;;;9.22;100;94702.38;;;;
2019/10/01 04:43:42;;;;;;;3.35;2;;;;;;;9.22;100;94702.38;;;;
2019/10/01 04:44:44;;;;;;;3.35;2;;;;;;;9.22;100;94702.38;;;;
2019/10/01 04:45:45;;;;;;;3.35;2;;;;;;;9.22;100;94702.38;;;;
2019/10/01 04:46:46;;;;;;;3.35;2;;;;;;;9.22;100;94702.38;;;;
2019/10/01 04:47:48;;;;;;;3.35;2;;;;;;;9.22;100;94702.38;;;;
2019/10/01 04:48:49;;;;;;;3.35;2;;;;;;;9.22;100;94702.38;;;;
2019/10/01 04:49:51;;;;;;;3.35;2;;;;;;;9.22;100;94702.38;;;;
2019/10/01 04:50:52;;;;;;;2.85;2;;;;;;;9.17;100;94694.33;;;;
2019/10/01 04:51:55;;;;;;;2.85;2;;;;;;;9.17;100;94694.33;;;;
2019/10/01 04:52:56;;;;;;;2.85;2;;;;;;;9.17;100;94694.33;;;;
2019/10/01 04:53:57;;;;;;;2.85;2;;;;;;;9.17;100;94694.33;;;;
2019/10/01 04:54:58;;;;;;;2.85;2;;;;;;;9.17;100;94694.33;;;;
2019/10/01 04:56:03;;;;;;;2.85;2;;;;;;;9.17;100;94694.33;;;;
2019/10/01 04:57:10;;;;;;;2.85;2;;;;;;;9.17;100;94694.33;;;;
2019/10/01 04:58:11;;;;;;;2.85;2;;;;;;;9.17;100;94694.33;;;;
2019/10/01 04:59:12;;;;;;;2.85;2;;;;;;;9.17;100;94694.33;;;;
2019/10/01 05:00:13;;;;;;;2.85;2;;;;;;;9.17;100;94694.33;;;;
2019/10/01 05:01:15;;;;;;;2.85;2;;;;;;;9.17;100;94694.33;;;;
2019/10/01 05:02:17;;;;;;;2.2;2;;;;;;;9.13;100;94696.26;;;;
2019/10/01 05:03:19;;;;;;;2.2;2;;;;;;;9.13;100;94696.26;;;;
2019/10/01 05:04:21;;;;;;;2.2;2;;;;;;;9.13;100;94696.26;;;;
2019/10/01 05:05:22;;;;;;;2.2;2;;;;;;;9.13;100;94696.26;;;;
2019/10/01 05:06:24;;;;;;;2.2;2;;;;;;;9.13;100;94696.26;;;;
2019/10/01 05:07:25;;;;;;;2.2;2;;;;;;;9.13;100;94696.26;;;;
2019/10/01 05:08:26;;;;;;;2.2;2;;;;;;;9.13;100;94696.26;;;;
2019/10/01 05:09:29;;;;;;;2.2;2;;;;;;;9.13;100;94696.26;;;;
2019/10/01 05:10:31;;;;;;;2.2;2;;;;;;;9.13;100;94696.26;;;;
2019/10/01 05:11:35;;;;;;;2.2;2;;;;;;;9.13;100;94696.26;;;;
2019/10/01 05:12:36;;;;;;;2.85;1.9;;;;;;;9.09;100;94687.86;;;;
2019/10/01 05:13:37;;;;;;;2.85;1.9;;;;;;;9.09;100;94687.86;;;;
2019/10/01 05:14:41;;;;;;;2.85;1.9;;;;;;;9.09;100;94687.86;;;;
2019/10/01 05:15:43;;;;;;;2.85;1.9;;;;;;;9.09;100;94687.86;;;;
2019/10/01 05:16:48;;;;;;;2.85;1.9;;;;;;;9.09;100;94687.86;;;;
2019/10/01 05:17:49;;;;;;;2.85;1.9;;;;;;;9.09;100;94687.86;;;;
2019/10/01 05:18:51;;;;;;;2.85;1.9;;;;;;;9.09;100;94687.86;;;;
2019/10/01 05:19:53;;;;;;;2.85;1.9;;;;;;;9.09;100;94687.86;;;;
2019/10/01 05:20:54;;;;;;;2.85;1.9;;;;;;;9.09;100;94687.86;;;;
2019/10/01 05:21:59;;;;;;;2.85;1.9;;;;;;;9.09;100;94687.86;;;;
2019/10/01 05:23:00;;;;;;;3.65;1.9;;;;;;;9.06;100;94683.9;;;;
2019/10/01 05:24:01;;;;;;;3.65;1.9;;;;;;;9.06;100;94683.9;;;;
2019/10/01 05:25:04;;;;;;;3.65;1.9;;;;;;;9.06;100;94683.9;;;;
2019/10/01 05:26:07;;;;;;;3.65;1.9;;;;;;;9.06;100;94683.9;;;;
2019/10/01 05:27:08;;;;;;;3.65;1.9;;;;;;;9.06;100;94683.9;;;;
2019/10/01 05:28:10;;;;;;;3.65;1.9;;;;;;;9.06;100;94683.9;;;;
2019/10/01 05:29:11;;;;;;;3.65;1.9;;;;;;;9.06;100;94683.9;;;;
2019/10/01 05:30:12;;;;;;;3.65;1.9;;;;;;;9.06;100;94683.9;;;;
2019/10/01 05:31:14;;;;;;;3.65;1.9;;;;;;;9.06;100;94683.9;;;;
2019/10/01 05:32:15;;;;;;;3.65;1.9;;;;;;;9.06;100;94683.9;;;;
2019/10/01 05:33:17;;;;;;;2.3;2;;;;;;;9.02;100;94675.08;;;;
2019/10/01 05:34:18;;;;;;;2.3;2;;;;;;;9.02;100;94675.08;;;;
2019/10/01 05:35:19;;;;;;;2.3;2;;;;;;;9.02;100;94675.08;;;;
2019/10/01 05:36:21;;;;;;;2.3;2;;;;;;;9.02;100;94675.08;;;;
2019/10/01 05:37:22;;;;;;;2.3;2;;;;;;;9.02;100;94675.08;;;;
2019/10/01 05:38:23;;;;;;;2.3;2;;;;;;;9.02;100;94675.08;;;;
2019/10/01 05:39:24;;;;;;;2.3;2;;;;;;;9.02;100;94675.08;;;;
2019/10/01 05:40:25;;;;;;;2.3;2;;;;;;;9.02;100;94675.08;;;;
2019/10/01 05:41:27;;;;;;;2.3;2;;;;;;;9.02;100;94675.08;;;;
2019/10/01 05:42:28;;;;;;;2.3;2;;;;;;;9.02;100;94675.08;;;;
2019/10/01 05:43:29;;;;;;;2.3;2;;;;;;;9.02;100;94675.08;;;;
2019/10/01 05:44:31;;;;;;;2.5;1.95;;;;;;;9.15;100;94675.31;;;;
2019/10/01 05:45:32;;;;;;;2.5;1.95;;;;;;;9.15;100;94675.31;;;;
2019/10/01 05:46:34;;;;;;;2.5;1.95;;;;;;;9.15;100;94675.31;;;;
2019/10/01 05:47:35;;;;;;;2.5;1.95;;;;;;;9.15;100;94675.31;;;;
2019/10/01 05:48:36;;;;;;;2.5;1.95;;;;;;;9.15;100;94675.31;;;;
2019/10/01 05:49:38;;;;;;;2.5;1.95;;;;;;;9.15;100;94675.31;;;;
2019/10/01 05:50:39;;;;;;;2.5;1.95;;;;;;;9.15;100;94675.31;;;;
2019/10/01 05:51:45;;;;;;;2.5;1.95;;;;;;;9.15;100;94675.31;;;;
2019/10/01 05:52:46;;;;;;;2.5;1.95;;;;;;;9.15;100;94675.31;;;;
2019/10/01 05:53:47;;;;;;;2.5;1.95;;;;;;;9.15;100;94675.31;;;;
2019/10/01 05:54:48;;;;;;;2.55;1.75;;;;;;;9.29;100;94660.47;;;;
2019/10/01 05:55:49;;;;;;;2.55;1.75;;;;;;;9.29;100;94660.47;;;;
2019/10/01 05:56:50;;;;;;;2.55;1.75;;;;;;;9.29;100;94660.47;;;;
2019/10/01 05:57:52;;;;;;;2.55;1.75;;;;;;;9.29;100;94660.47;;;;
2019/10/01 05:58:53;;;;;;;2.55;1.75;;;;;;;9.29;100;94660.47;;;;
2019/10/01 05:59:54;;;;;;;2.55;1.75;;;;;;;9.29;100;94660.47;;;;
2019/10/01 06:00:55;;;;;;;2.55;1.75;;;;;;;9.29;100;94660.47;;;;
2019/10/01 06:01:56;;;;;;;2.55;1.75;;;;;;;9.29;100;94660.47;;;;
2019/10/01 06:02:57;;;;;;;2.55;1.75;;;;;;;9.29;100;94660.47;;;;
2019/10/01 06:03:59;;;;;;;2.55;1.75;;;;;;;9.29;100;94660.47;;;;
2019/10/01 06:05:00;;;;;;;4.05;1.8;;;;;;;9.55;100;94650.02;;;;
2019/10/01 06:06:01;;;;;;;4.05;1.8;;;;;;;9.55;100;94650.02;;;;
2019/10/01 06:07:03;;;;;;;4.05;1.8;;;;;;;9.55;100;94650.02;;;;
2019/10/01 06:08:04;;;;;;;4.05;1.8;;;;;;;9.55;100;94650.02;;;;
2019/10/01 06:09:06;;;;;;;4.05;1.8;;;;;;;9.55;100;94650.02;;;;
2019/10/01 06:10:07;;;;;;;4.05;1.8;;;;;;;9.55;100;94650.02;;;;
2019/10/01 06:11:09;;;;;;;4.05;1.8;;;;;;;9.55;100;94650.02;;;;
2019/10/01 06:12:11;;;;;;;4.05;1.8;;;;;;;9.55;100;94650.02;;;;
2019/10/01 06:13:12;;;;;;;4.05;1.8;;;;;;;9.55;100;94650.02;;;;
2019/10/01 06:14:13;;;;;;;4.05;1.8;;;;;;;9.55;100;94650.02;;;;
2019/10/01 06:15:14;;;;;;;4.05;1.8;;;;;;;9.55;100;94650.02;;;;
2019/10/01 06:16:16;;;;;;;2.8;1.8;;;;;;;9.77;100;94636.05;;;;
2019/10/01 06:17:17;;;;;;;2.8;1.8;;;;;;;9.77;100;94636.05;;;;
2019/10/01 06:18:18;;;;;;;2.9;1.9;;;;;;;9.9;100;94634.38;;;;
2019/10/01 06:19:20;;;;;;;2.9;1.9;;;;;;;9.9;100;94634.38;;;;
2019/10/01 06:20:21;;;;;;;2.9;1.9;;;;;;;9.9;100;94634.38;;;;
2019/10/01 06:21:27;;;;;;;2.9;1.9;;;;;;;9.9;100;94634.38;;;;